createdAt,value
2022-11-24T00:10:21.194Z,94.4
2022-11-24T00:22:21.191Z,94.3
2022-11-24T00:34:21.297Z,93.5
2022-11-24T00:46:21.362Z,93.7
2022-11-24T00:58:21.296Z,94.0
2022-11-24T01:10:21.320Z,94.1
2022-11-24T01:22:21.301Z,94.3
2022-11-24T01:34:21.214Z,94.4
2022-11-24T01:46:21.299Z,94.2
2022-11-24T01:58:21.312Z,94.0
2022-11-24T02:10:21.235Z,94.0
2022-11-24T02:22:21.284Z,93.9
2022-11-24T02:34:21.341Z,94.0
2022-11-24T02:46:21.262Z,93.8
2022-11-24T02:58:21.288Z,93.5
2022-11-24T03:10:21.286Z,93.3
2022-11-24T03:22:21.301Z,92.7
2022-11-24T03:34:21.197Z,92.6
2022-11-24T03:46:21.327Z,91.8
2022-11-24T03:58:21.285Z,91.7
2022-11-24T04:10:21.260Z,91.4
2022-11-24T04:22:21.316Z,90.7
2022-11-24T04:34:21.258Z,90.7
2022-11-24T04:46:21.334Z,90.7
2022-11-24T04:58:21.300Z,90.9
2022-11-24T05:10:21.188Z,91.3
2022-11-24T05:22:21.196Z,91.3
2022-11-24T05:34:21.245Z,91.7
2022-11-24T05:46:21.340Z,91.8
2022-11-24T05:58:21.324Z,91.6
2022-11-24T06:10:21.288Z,91.6
2022-11-24T06:22:21.274Z,91.7
2022-11-24T06:34:21.315Z,92.1
2022-11-24T06:46:21.919Z,92.9
2022-11-24T06:58:21.193Z,93.2
2022-11-24T07:10:21.202Z,93.7
2022-11-24T07:22:21.305Z,93.5
2022-11-24T07:34:21.203Z,93.0
2022-11-24T07:46:21.245Z,92.7
2022-11-24T07:58:21.307Z,92.2
2022-11-24T08:10:21.312Z,92.6
2022-11-24T08:22:21.276Z,93.6
2022-11-24T08:34:21.296Z,93.9
2022-11-24T08:46:21.293Z,94.7
2022-11-24T08:58:21.189Z,93.9
2022-11-24T09:10:21.368Z,93.3
2022-11-24T09:22:21.191Z,92.4
2022-11-24T09:34:21.305Z,92.2
2022-11-24T09:46:21.408Z,91.5
2022-11-24T09:58:21.196Z,90.5
2022-11-24T10:10:24.609Z,88.1
2022-11-24T10:22:21.306Z,85.8
2022-11-24T10:34:21.318Z,86.0
2022-11-24T10:46:21.304Z,83.9
2022-11-24T10:58:21.282Z,84.1
2022-11-24T11:10:21.373Z,82.9
2022-11-24T11:22:21.207Z,79.1
2022-11-24T11:34:26.905Z,77.4
2022-11-24T11:46:21.400Z,76.3
2022-11-24T11:58:21.211Z,75.1
2022-11-24T12:10:21.297Z,72.4
2022-11-24T12:22:21.210Z,71.6
2022-11-24T12:34:21.211Z,73.6
2022-11-24T12:46:21.368Z,71.6
2022-11-24T12:58:21.314Z,72.5
2022-11-24T13:10:30.153Z,72.2
2022-11-24T13:22:21.292Z,71.5
2022-11-24T13:34:21.200Z,70.4
2022-11-24T13:46:21.252Z,71.7
2022-11-24T13:58:21.261Z,71.0
2022-11-24T14:10:21.247Z,71.3
2022-11-24T14:22:21.191Z,73.4
2022-11-24T14:34:21.199Z,74.6
2022-11-24T14:46:21.221Z,76.6
2022-11-24T14:58:21.390Z,77.2
2022-11-24T15:10:21.187Z,76.2
2022-11-24T15:22:21.259Z,77.6
2022-11-24T15:34:21.276Z,78.4
2022-11-24T15:46:21.290Z,77.7
2022-11-24T15:58:21.256Z,77.8
2022-11-24T16:10:21.246Z,78.2
2022-11-24T16:22:21.233Z,78.4
2022-11-24T16:34:21.288Z,79.6
2022-11-24T16:46:21.380Z,81.4
2022-11-24T16:58:21.302Z,81.7
2022-11-24T17:10:21.288Z,82.1
2022-11-24T17:22:21.189Z,81.8
2022-11-24T17:34:21.288Z,82.1
2022-11-24T17:46:21.409Z,82.1
2022-11-24T17:58:21.280Z,81.6
2022-11-24T18:10:21.305Z,79.9
2022-11-24T18:22:36.652Z,79.9
2022-11-24T18:34:21.265Z,80.4
2022-11-24T18:46:21.287Z,82.1
2022-11-24T18:58:21.306Z,83.1
2022-11-24T19:10:21.281Z,83.0
2022-11-24T19:22:21.246Z,83.1
2022-11-24T19:34:21.288Z,83.5
2022-11-24T19:46:21.354Z,83.5
2022-11-24T19:58:21.312Z,83.4
2022-11-24T20:10:21.250Z,83.6
2022-11-24T20:22:21.194Z,84.4
2022-11-24T20:34:21.273Z,85.0
2022-11-24T20:46:21.236Z,85.6
2022-11-24T20:58:21.256Z,85.4
2022-11-24T21:10:21.291Z,85.9
2022-11-24T21:22:21.307Z,86.3
2022-11-24T21:34:21.236Z,86.8
2022-11-24T21:46:21.258Z,87.2
2022-11-24T21:58:21.299Z,87.1
2022-11-24T22:10:21.187Z,87.4
2022-11-24T22:22:21.335Z,87.8
2022-11-24T22:34:21.870Z,88.0
2022-11-24T22:46:21.418Z,88.2
2022-11-24T22:58:21.238Z,88.5
2022-11-24T23:10:21.200Z,89.0
2022-11-24T23:22:21.250Z,90.2
2022-11-24T23:34:21.199Z,90.3
2022-11-24T23:46:21.262Z,90.4
2022-11-24T23:58:21.198Z,90.0
